sensor_id;sensor_type;location;lat;lon;timestamp;P1;durP1;ratioP1;P2;durP2;ratioP2
13588;SDS011;6865;52.552;13.434;2024-03-23T00:53:59;14.60;;;3.57;;
13588;SDS011;6865;52.552;13.434;2024-03-23T00:56:25;16.73;;;4.17;;
13588;SDS011;6865;52.552;13.434;2024-03-23T00:58:51;16.63;;;3.77;;
13588;SDS011;6865;52.552;13.434;2024-03-23T01:01:17;13.10;;;3.37;;
13588;SDS011;6865;52.552;13.434;2024-03-23T01:03:42;15.93;;;3.57;;
13588;SDS011;6865;52.552;13.434;2024-03-23T01:06:08;16.57;;;3.60;;
13588;SDS011;6865;52.552;13.434;2024-03-23T01:08:34;14.47;;;3.53;;
13588;SDS011;6865;52.552;13.434;2024-03-23T01:11:00;13.53;;;3.50;;
13588;SDS011;6865;52.552;13.434;2024-03-23T01:13:27;15.27;;;3.60;;
13588;SDS011;6865;52.552;13.434;2024-03-23T01:15:54;14.77;;;3.67;;
13588;SDS011;6865;52.552;13.434;2024-03-23T01:18:21;17.93;;;3.50;;
13588;SDS011;6865;52.552;13.434;2024-03-23T01:20:47;13.67;;;3.73;;
13588;SDS011;6865;52.552;13.434;2024-03-23T01:23:14;13.90;;;3.57;;
13588;SDS011;6865;52.552;13.434;2024-03-23T01:25:40;13.50;;;3.40;;
13588;SDS011;6865;52.552;13.434;2024-03-23T01:28:06;11.63;;;3.33;;
13588;SDS011;6865;52.552;13.434;2024-03-23T01:30:32;13.67;;;3.63;;
13588;SDS011;6865;52.552;13.434;2024-03-23T01:32:58;13.63;;;3.83;;
13588;SDS011;6865;52.552;13.434;2024-03-23T01:35:24;17.70;;;4.30;;
13588;SDS011;6865;52.552;13.434;2024-03-23T01:37:49;18.20;;;3.53;;
13588;SDS011;6865;52.552;13.434;2024-03-23T01:40:18;17.17;;;4.47;;
13588;SDS011;6865;52.552;13.434;2024-03-23T01:42:57;21.13;;;4.40;;
13588;SDS011;6865;52.552;13.434;2024-03-23T01:45:30;15.67;;;3.77;;
13588;SDS011;6865;52.552;13.434;2024-03-23T01:47:56;12.90;;;3.77;;
13588;SDS011;6865;52.552;13.434;2024-03-23T01:50:22;16.80;;;4.13;;
13588;SDS011;6865;52.552;13.434;2024-03-23T01:52:49;15.63;;;3.97;;
13588;SDS011;6865;52.552;13.434;2024-03-23T01:55:15;17.37;;;4.10;;
13588;SDS011;6865;52.552;13.434;2024-03-23T01:57:41;14.37;;;4.13;;
13588;SDS011;6865;52.552;13.434;2024-03-23T02:00:07;13.93;;;3.63;;
13588;SDS011;6865;52.552;13.434;2024-03-23T02:02:44;21.53;;;4.10;;
13588;SDS011;6865;52.552;13.434;2024-03-23T02:05:11;18.27;;;4.00;;
13588;SDS011;6865;52.552;13.434;2024-03-23T02:07:37;16.57;;;3.73;;
13588;SDS011;6865;52.552;13.434;2024-03-23T02:10:08;11.53;;;3.70;;
13588;SDS011;6865;52.552;13.434;2024-03-23T02:12:35;14.47;;;4.00;;
13588;SDS011;6865;52.552;13.434;2024-03-23T02:15:02;14.83;;;3.90;;
13588;SDS011;6865;52.552;13.434;2024-03-23T02:17:30;17.97;;;4.40;;
13588;SDS011;6865;52.552;13.434;2024-03-23T02:19:58;23.23;;;4.50;;
13588;SDS011;6865;52.552;13.434;2024-03-23T02:22:25;14.87;;;4.10;;
13588;SDS011;6865;52.552;13.434;2024-03-23T02:24:59;18.90;;;4.40;;
13588;SDS011;6865;52.552;13.434;2024-03-23T02:27:25;15.57;;;3.77;;
13588;SDS011;6865;52.552;13.434;2024-03-23T02:29:51;18.07;;;4.20;;
13588;SDS011;6865;52.552;13.434;2024-03-23T02:32:16;17.10;;;3.73;;
13588;SDS011;6865;52.552;13.434;2024-03-23T02:34:42;16.70;;;4.23;;
13588;SDS011;6865;52.552;13.434;2024-03-23T02:37:11;16.90;;;3.80;;
13588;SDS011;6865;52.552;13.434;2024-03-23T02:39:37;19.17;;;4.57;;
13588;SDS011;6865;52.552;13.434;2024-03-23T02:42:03;18.47;;;3.80;;
13588;SDS011;6865;52.552;13.434;2024-03-23T02:44:28;13.07;;;3.63;;
13588;SDS011;6865;52.552;13.434;2024-03-23T02:46:54;20.27;;;4.30;;
13588;SDS011;6865;52.552;13.434;2024-03-23T02:49:20;18.77;;;3.87;;
13588;SDS011;6865;52.552;13.434;2024-03-23T02:51:46;15.67;;;4.07;;
13588;SDS011;6865;52.552;13.434;2024-03-23T02:54:13;27.50;;;4.77;;
13588;SDS011;6865;52.552;13.434;2024-03-23T02:56:39;18.57;;;4.70;;
13588;SDS011;6865;52.552;13.434;2024-03-23T02:59:05;17.33;;;4.20;;
13588;SDS011;6865;52.552;13.434;2024-03-23T03:01:31;16.73;;;4.40;;
13588;SDS011;6865;52.552;13.434;2024-03-23T03:03:57;15.43;;;4.53;;
13588;SDS011;6865;52.552;13.434;2024-03-23T03:06:23;13.77;;;4.00;;
13588;SDS011;6865;52.552;13.434;2024-03-23T03:08:49;13.90;;;4.10;;
13588;SDS011;6865;52.552;13.434;2024-03-23T03:11:15;18.57;;;3.90;;
13588;SDS011;6865;52.552;13.434;2024-03-23T03:13:41;14.17;;;4.13;;
13588;SDS011;6865;52.552;13.434;2024-03-23T03:16:08;20.43;;;4.77;;
13588;SDS011;6865;52.552;13.434;2024-03-23T03:18:35;19.33;;;4.50;;
13588;SDS011;6865;52.552;13.434;2024-03-23T03:21:00;18.93;;;4.43;;
13588;SDS011;6865;52.552;13.434;2024-03-23T03:23:27;18.60;;;4.33;;
13588;SDS011;6865;52.552;13.434;2024-03-23T03:25:53;12.00;;;3.97;;
13588;SDS011;6865;52.552;13.434;2024-03-23T03:28:18;14.17;;;3.93;;
13588;SDS011;6865;52.552;13.434;2024-03-23T03:30:45;15.97;;;4.00;;
13588;SDS011;6865;52.552;13.434;2024-03-23T03:33:10;19.20;;;4.03;;
13588;SDS011;6865;52.552;13.434;2024-03-23T03:35:36;14.00;;;4.27;;
13588;SDS011;6865;52.552;13.434;2024-03-23T03:38:03;14.80;;;3.73;;
13588;SDS011;6865;52.552;13.434;2024-03-23T03:40:29;14.83;;;4.30;;
13588;SDS011;6865;52.552;13.434;2024-03-23T03:42:55;14.30;;;3.93;;
13588;SDS011;6865;52.552;13.434;2024-03-23T03:45:21;13.87;;;3.93;;
13588;SDS011;6865;52.552;13.434;2024-03-23T03:47:47;15.33;;;4.30;;
13588;SDS011;6865;52.552;13.434;2024-03-23T03:50:12;10.70;;;3.60;;
13588;SDS011;6865;52.552;13.434;2024-03-23T03:52:38;14.30;;;4.03;;
13588;SDS011;6865;52.552;13.434;2024-03-23T03:55:05;18.80;;;4.20;;
13588;SDS011;6865;52.552;13.434;2024-03-23T03:57:38;14.07;;;3.80;;
13588;SDS011;6865;52.552;13.434;2024-03-23T04:00:03;12.60;;;3.43;;
13588;SDS011;6865;52.552;13.434;2024-03-23T04:02:30;12.57;;;3.50;;
13588;SDS011;6865;52.552;13.434;2024-03-23T04:04:55;14.40;;;3.70;;
13588;SDS011;6865;52.552;13.434;2024-03-23T04:07:21;12.27;;;3.40;;
13588;SDS011;6865;52.552;13.434;2024-03-23T04:09:48;11.90;;;3.33;;
13588;SDS011;6865;52.552;13.434;2024-03-23T04:12:14;13.97;;;3.40;;
13588;SDS011;6865;52.552;13.434;2024-03-23T04:14:40;8.67;;;2.97;;
13588;SDS011;6865;52.552;13.434;2024-03-23T04:17:06;10.17;;;3.13;;
13588;SDS011;6865;52.552;13.434;2024-03-23T04:19:32;10.97;;;2.70;;
13588;SDS011;6865;52.552;13.434;2024-03-23T04:21:57;8.97;;;2.97;;
13588;SDS011;6865;52.552;13.434;2024-03-23T04:24:23;9.37;;;2.83;;
13588;SDS011;6865;52.552;13.434;2024-03-23T04:26:51;5.60;;;2.40;;
13588;SDS011;6865;52.552;13.434;2024-03-23T04:29:17;6.83;;;2.40;;
13588;SDS011;6865;52.552;13.434;2024-03-23T04:31:43;7.00;;;2.17;;
13588;SDS011;6865;52.552;13.434;2024-03-23T04:34:08;7.97;;;2.37;;
13588;SDS011;6865;52.552;13.434;2024-03-23T04:36:34;8.10;;;2.00;;
13588;SDS011;6865;52.552;13.434;2024-03-23T04:39:00;4.77;;;2.27;;
13588;SDS011;6865;52.552;13.434;2024-03-23T04:41:26;6.60;;;2.00;;
13588;SDS011;6865;52.552;13.434;2024-03-23T04:43:51;7.63;;;2.67;;
13588;SDS011;6865;52.552;13.434;2024-03-23T04:46:17;6.87;;;2.20;;
13588;SDS011;6865;52.552;13.434;2024-03-23T04:48:43;5.97;;;2.37;;
13588;SDS011;6865;52.552;13.434;2024-03-23T04:51:20;5.13;;;2.30;;
13588;SDS011;6865;52.552;13.434;2024-03-23T04:53:47;5.27;;;2.70;;
13588;SDS011;6865;52.552;13.434;2024-03-23T04:56:13;7.27;;;3.07;;
13588;SDS011;6865;52.552;13.434;2024-03-23T04:58:40;7.53;;;2.30;;
13588;SDS011;6865;52.552;13.434;2024-03-23T05:01:05;5.13;;;2.17;;
13588;SDS011;6865;52.552;13.434;2024-03-23T05:03:31;8.17;;;2.30;;
13588;SDS011;6865;52.552;13.434;2024-03-23T05:05:57;7.80;;;2.07;;
13588;SDS011;6865;52.552;13.434;2024-03-23T05:08:23;6.93;;;1.90;;
13588;SDS011;6865;52.552;13.434;2024-03-23T05:10:49;4.77;;;2.17;;
13588;SDS011;6865;52.552;13.434;2024-03-23T05:13:15;6.63;;;2.23;;
13588;SDS011;6865;52.552;13.434;2024-03-23T05:15:41;5.50;;;1.90;;
13588;SDS011;6865;52.552;13.434;2024-03-23T05:18:06;6.47;;;2.40;;
13588;SDS011;6865;52.552;13.434;2024-03-23T05:20:32;6.90;;;2.00;;
13588;SDS011;6865;52.552;13.434;2024-03-23T05:22:58;6.63;;;2.03;;
13588;SDS011;6865;52.552;13.434;2024-03-23T05:25:24;7.37;;;2.40;;
13588;SDS011;6865;52.552;13.434;2024-03-23T05:27:49;5.53;;;1.90;;
13588;SDS011;6865;52.552;13.434;2024-03-23T05:30:15;4.87;;;2.47;;
13588;SDS011;6865;52.552;13.434;2024-03-23T05:32:41;7.77;;;2.13;;
13588;SDS011;6865;52.552;13.434;2024-03-23T05:35:08;8.17;;;2.40;;
13588;SDS011;6865;52.552;13.434;2024-03-23T05:37:34;4.53;;;2.03;;
13588;SDS011;6865;52.552;13.434;2024-03-23T05:40:01;4.70;;;2.10;;
13588;SDS011;6865;52.552;13.434;2024-03-23T05:42:28;7.13;;;2.17;;
13588;SDS011;6865;52.552;13.434;2024-03-23T05:44:54;6.63;;;2.30;;
13588;SDS011;6865;52.552;13.434;2024-03-23T05:47:20;7.13;;;2.80;;
13588;SDS011;6865;52.552;13.434;2024-03-23T05:49:46;6.00;;;1.97;;
13588;SDS011;6865;52.552;13.434;2024-03-23T05:52:12;8.87;;;2.40;;
13588;SDS011;6865;52.552;13.434;2024-03-23T05:54:38;6.10;;;2.50;;
13588;SDS011;6865;52.552;13.434;2024-03-23T05:57:04;7.73;;;2.70;;
13588;SDS011;6865;52.552;13.434;2024-03-23T05:59:32;6.87;;;2.50;;
13588;SDS011;6865;52.552;13.434;2024-03-23T06:01:58;6.77;;;2.87;;
13588;SDS011;6865;52.552;13.434;2024-03-23T06:04:24;9.93;;;3.27;;
13588;SDS011;6865;52.552;13.434;2024-03-23T06:06:50;7.67;;;2.60;;
13588;SDS011;6865;52.552;13.434;2024-03-23T06:09:20;8.07;;;2.50;;
13588;SDS011;6865;52.552;13.434;2024-03-23T06:11:45;8.53;;;2.80;;
13588;SDS011;6865;52.552;13.434;2024-03-23T06:14:11;8.70;;;2.90;;
13588;SDS011;6865;52.552;13.434;2024-03-23T06:16:37;7.00;;;2.80;;
13588;SDS011;6865;52.552;13.434;2024-03-23T06:19:03;7.80;;;2.73;;
13588;SDS011;6865;52.552;13.434;2024-03-23T06:21:32;11.10;;;3.17;;
13588;SDS011;6865;52.552;13.434;2024-03-23T06:23:58;11.07;;;3.10;;
13588;SDS011;6865;52.552;13.434;2024-03-23T06:26:24;8.57;;;3.03;;
13588;SDS011;6865;52.552;13.434;2024-03-23T06:28:49;10.63;;;3.33;;
13588;SDS011;6865;52.552;13.434;2024-03-23T06:31:15;7.30;;;2.53;;
13588;SDS011;6865;52.552;13.434;2024-03-23T06:33:41;7.97;;;2.20;;
13588;SDS011;6865;52.552;13.434;2024-03-23T06:36:09;5.60;;;2.53;;
13588;SDS011;6865;52.552;13.434;2024-03-23T06:38:35;6.67;;;2.70;;
13588;SDS011;6865;52.552;13.434;2024-03-23T06:41:05;7.60;;;2.17;;
13588;SDS011;6865;52.552;13.434;2024-03-23T06:43:30;7.97;;;2.33;;
13588;SDS011;6865;52.552;13.434;2024-03-23T06:45:56;8.80;;;2.50;;
13588;SDS011;6865;52.552;13.434;2024-03-23T06:48:22;8.73;;;2.20;;
13588;SDS011;6865;52.552;13.434;2024-03-23T06:50:48;9.10;;;2.27;;
13588;SDS011;6865;52.552;13.434;2024-03-23T06:53:14;9.60;;;2.60;;
13588;SDS011;6865;52.552;13.434;2024-03-23T06:55:40;13.23;;;2.40;;
13588;SDS011;6865;52.552;13.434;2024-03-23T06:58:07;8.50;;;2.70;;
13588;SDS011;6865;52.552;13.434;2024-03-23T07:00:33;8.67;;;2.33;;
13588;SDS011;6865;52.552;13.434;2024-03-23T07:03:02;10.60;;;2.40;;
13588;SDS011;6865;52.552;13.434;2024-03-23T07:05:29;8.50;;;2.17;;
13588;SDS011;6865;52.552;13.434;2024-03-23T07:07:54;9.03;;;2.40;;
13588;SDS011;6865;52.552;13.434;2024-03-23T07:10:20;6.77;;;2.30;;
13588;SDS011;6865;52.552;13.434;2024-03-23T07:12:46;4.60;;;2.27;;
13588;SDS011;6865;52.552;13.434;2024-03-23T07:15:11;6.83;;;2.33;;
13588;SDS011;6865;52.552;13.434;2024-03-23T07:17:37;9.20;;;3.47;;
13588;SDS011;6865;52.552;13.434;2024-03-23T07:20:03;6.93;;;2.53;;
13588;SDS011;6865;52.552;13.434;2024-03-23T07:22:32;6.83;;;2.80;;
13588;SDS011;6865;52.552;13.434;2024-03-23T07:25:01;9.83;;;3.30;;
13588;SDS011;6865;52.552;13.434;2024-03-23T07:27:28;8.53;;;2.60;;
13588;SDS011;6865;52.552;13.434;2024-03-23T07:29:54;5.23;;;2.60;;
13588;SDS011;6865;52.552;13.434;2024-03-23T07:32:20;11.97;;;2.60;;
13588;SDS011;6865;52.552;13.434;2024-03-23T07:34:46;7.50;;;2.70;;
13588;SDS011;6865;52.552;13.434;2024-03-23T07:37:12;6.50;;;2.40;;
13588;SDS011;6865;52.552;13.434;2024-03-23T07:39:39;7.83;;;2.63;;
13588;SDS011;6865;52.552;13.434;2024-03-23T07:42:05;7.77;;;2.87;;
13588;SDS011;6865;52.552;13.434;2024-03-23T07:44:31;8.40;;;2.80;;
13588;SDS011;6865;52.552;13.434;2024-03-23T07:46:56;6.60;;;2.47;;
13588;SDS011;6865;52.552;13.434;2024-03-23T07:49:23;6.57;;;2.80;;
13588;SDS011;6865;52.552;13.434;2024-03-23T07:51:49;8.43;;;2.50;;
13588;SDS011;6865;52.552;13.434;2024-03-23T07:54:15;7.37;;;1.97;;
13588;SDS011;6865;52.552;13.434;2024-03-23T07:56:41;8.03;;;2.00;;
13588;SDS011;6865;52.552;13.434;2024-03-23T07:59:06;9.53;;;2.10;;
13588;SDS011;6865;52.552;13.434;2024-03-23T08:01:32;8.03;;;2.23;;
13588;SDS011;6865;52.552;13.434;2024-03-23T08:03:58;7.17;;;2.03;;
13588;SDS011;6865;52.552;13.434;2024-03-23T08:06:24;6.37;;;1.70;;
13588;SDS011;6865;52.552;13.434;2024-03-23T08:08:51;6.80;;;2.40;;
13588;SDS011;6865;52.552;13.434;2024-03-23T08:11:31;6.47;;;2.43;;
13588;SDS011;6865;52.552;13.434;2024-03-23T08:13:59;8.37;;;2.60;;
13588;SDS011;6865;52.552;13.434;2024-03-23T08:16:26;6.93;;;2.23;;
13588;SDS011;6865;52.552;13.434;2024-03-23T08:18:53;7.00;;;2.17;;
13588;SDS011;6865;52.552;13.434;2024-03-23T08:21:20;5.13;;;1.93;;
13588;SDS011;6865;52.552;13.434;2024-03-23T08:23:46;4.70;;;2.30;;
13588;SDS011;6865;52.552;13.434;2024-03-23T08:26:12;5.83;;;2.43;;
13588;SDS011;6865;52.552;13.434;2024-03-23T08:28:40;4.67;;;2.20;;
13588;SDS011;6865;52.552;13.434;2024-03-23T08:31:07;6.57;;;2.17;;
13588;SDS011;6865;52.552;13.434;2024-03-23T08:33:33;5.90;;;1.80;;
13588;SDS011;6865;52.552;13.434;2024-03-23T08:36:00;5.80;;;1.93;;
13588;SDS011;6865;52.552;13.434;2024-03-23T08:38:30;5.90;;;2.03;;
13588;SDS011;6865;52.552;13.434;2024-03-23T08:40:57;7.77;;;2.70;;
13588;SDS011;6865;52.552;13.434;2024-03-23T08:43:23;4.83;;;1.90;;
13588;SDS011;6865;52.552;13.434;2024-03-23T08:45:49;7.80;;;2.47;;
13588;SDS011;6865;52.552;13.434;2024-03-23T08:48:15;8.37;;;2.40;;
13588;SDS011;6865;52.552;13.434;2024-03-23T08:50:41;5.07;;;2.50;;
13588;SDS011;6865;52.552;13.434;2024-03-23T08:53:06;5.13;;;2.33;;
13588;SDS011;6865;52.552;13.434;2024-03-23T08:55:33;6.83;;;2.30;;
13588;SDS011;6865;52.552;13.434;2024-03-23T08:57:58;4.17;;;2.10;;
13588;SDS011;6865;52.552;13.434;2024-03-23T09:00:25;7.33;;;2.40;;
13588;SDS011;6865;52.552;13.434;2024-03-23T09:02:51;7.33;;;2.13;;
13588;SDS011;6865;52.552;13.434;2024-03-23T09:05:18;5.83;;;2.37;;
13588;SDS011;6865;52.552;13.434;2024-03-23T09:07:43;6.77;;;2.10;;
13588;SDS011;6865;52.552;13.434;2024-03-23T09:10:09;4.93;;;2.47;;
13588;SDS011;6865;52.552;13.434;2024-03-23T09:12:35;7.83;;;2.60;;
13588;SDS011;6865;52.552;13.434;2024-03-23T09:15:00;6.37;;;1.97;;
13588;SDS011;6865;52.552;13.434;2024-03-23T09:17:26;7.70;;;1.90;;
13588;SDS011;6865;52.552;13.434;2024-03-23T09:19:52;9.13;;;2.50;;
13588;SDS011;6865;52.552;13.434;2024-03-23T09:22:18;7.93;;;2.60;;
13588;SDS011;6865;52.552;13.434;2024-03-23T09:24:43;5.77;;;2.20;;
13588;SDS011;6865;52.552;13.434;2024-03-23T09:27:09;5.33;;;1.63;;
13588;SDS011;6865;52.552;13.434;2024-03-23T09:29:35;5.53;;;1.53;;
13588;SDS011;6865;52.552;13.434;2024-03-23T09:32:00;4.23;;;1.50;;
13588;SDS011;6865;52.552;13.434;2024-03-23T09:34:26;4.43;;;1.90;;
13588;SDS011;6865;52.552;13.434;2024-03-23T09:36:52;5.70;;;1.40;;
13588;SDS011;6865;52.552;13.434;2024-03-23T09:39:18;6.23;;;2.07;;
13588;SDS011;6865;52.552;13.434;2024-03-23T09:41:44;5.73;;;1.60;;
13588;SDS011;6865;52.552;13.434;2024-03-23T09:44:11;9.37;;;2.23;;
13588;SDS011;6865;52.552;13.434;2024-03-23T09:46:37;6.20;;;2.00;;
13588;SDS011;6865;52.552;13.434;2024-03-23T09:49:04;4.93;;;2.07;;
13588;SDS011;6865;52.552;13.434;2024-03-23T09:51:35;4.97;;;2.00;;
13588;SDS011;6865;52.552;13.434;2024-03-23T09:54:04;8.03;;;2.47;;
13588;SDS011;6865;52.552;13.434;2024-03-23T09:56:30;6.20;;;2.27;;
13588;SDS011;6865;52.552;13.434;2024-03-23T09:59:02;8.23;;;2.50;;
13588;SDS011;6865;52.552;13.434;2024-03-23T10:01:31;7.00;;;2.20;;
13588;SDS011;6865;52.552;13.434;2024-03-23T10:03:58;5.77;;;2.27;;
13588;SDS011;6865;52.552;13.434;2024-03-23T10:06:24;6.07;;;1.90;;
13588;SDS011;6865;52.552;13.434;2024-03-23T10:08:50;6.47;;;1.90;;
13588;SDS011;6865;52.552;13.434;2024-03-23T10:11:18;5.83;;;2.23;;
13588;SDS011;6865;52.552;13.434;2024-03-23T10:13:44;6.03;;;2.33;;
13588;SDS011;6865;52.552;13.434;2024-03-23T10:16:11;10.20;;;2.90;;
13588;SDS011;6865;52.552;13.434;2024-03-23T10:18:45;8.13;;;2.13;;
13588;SDS011;6865;52.552;13.434;2024-03-23T10:21:11;6.63;;;2.10;;
13588;SDS011;6865;52.552;13.434;2024-03-23T10:23:39;7.70;;;2.17;;
13588;SDS011;6865;52.552;13.434;2024-03-23T10:26:13;5.63;;;1.83;;
13588;SDS011;6865;52.552;13.434;2024-03-23T10:28:53;11.13;;;2.03;;
13588;SDS011;6865;52.552;13.434;2024-03-23T10:31:27;7.50;;;2.30;;
13588;SDS011;6865;52.552;13.434;2024-03-23T10:33:54;5.97;;;1.93;;
13588;SDS011;6865;52.552;13.434;2024-03-23T10:36:20;5.43;;;2.10;;
13588;SDS011;6865;52.552;13.434;2024-03-23T10:38:47;8.87;;;2.43;;
13588;SDS011;6865;52.552;13.434;2024-03-23T10:41:14;10.43;;;2.40;;
13588;SDS011;6865;52.552;13.434;2024-03-23T10:43:41;8.33;;;2.20;;
13588;SDS011;6865;52.552;13.434;2024-03-23T10:46:09;8.80;;;3.00;;
13588;SDS011;6865;52.552;13.434;2024-03-23T10:48:35;5.63;;;2.33;;
13588;SDS011;6865;52.552;13.434;2024-03-23T10:51:01;9.87;;;3.03;;
13588;SDS011;6865;52.552;13.434;2024-03-23T10:53:28;7.00;;;2.43;;
13588;SDS011;6865;52.552;13.434;2024-03-23T10:55:54;10.87;;;3.10;;
13588;SDS011;6865;52.552;13.434;2024-03-23T10:58:38;10.23;;;3.03;;
13588;SDS011;6865;52.552;13.434;2024-03-23T11:01:06;8.00;;;2.43;;
13588;SDS011;6865;52.552;13.434;2024-03-23T11:03:36;12.13;;;3.03;;
13588;SDS011;6865;52.552;13.434;2024-03-23T11:06:04;9.60;;;2.57;;
13588;SDS011;6865;52.552;13.434;2024-03-23T11:08:40;8.10;;;2.40;;
13588;SDS011;6865;52.552;13.434;2024-03-23T11:11:17;9.70;;;3.00;;
13588;SDS011;6865;52.552;13.434;2024-03-23T11:13:44;7.87;;;2.73;;
13588;SDS011;6865;52.552;13.434;2024-03-23T11:16:13;4.53;;;2.20;;
13588;SDS011;6865;52.552;13.434;2024-03-23T11:18:47;5.80;;;2.30;;
13588;SDS011;6865;52.552;13.434;2024-03-23T11:21:51;5.63;;;2.00;;
13588;SDS011;6865;52.552;13.434;2024-03-23T11:24:21;8.73;;;2.47;;
13588;SDS011;6865;52.552;13.434;2024-03-23T11:26:48;9.70;;;2.67;;
13588;SDS011;6865;52.552;13.434;2024-03-23T11:29:14;8.53;;;2.50;;
13588;SDS011;6865;52.552;13.434;2024-03-23T11:31:48;6.00;;;2.20;;
13588;SDS011;6865;52.552;13.434;2024-03-23T11:34:15;4.30;;;1.90;;
13588;SDS011;6865;52.552;13.434;2024-03-23T11:36:44;8.13;;;2.60;;
13588;SDS011;6865;52.552;13.434;2024-03-23T11:39:11;6.47;;;2.53;;
13588;SDS011;6865;52.552;13.434;2024-03-23T11:41:55;6.43;;;2.87;;
13588;SDS011;6865;52.552;13.434;2024-03-23T11:44:26;7.83;;;3.00;;
13588;SDS011;6865;52.552;13.434;2024-03-23T11:46:52;7.20;;;2.77;;
13588;SDS011;6865;52.552;13.434;2024-03-23T11:49:22;6.73;;;2.70;;
13588;SDS011;6865;52.552;13.434;2024-03-23T11:51:48;7.27;;;2.70;;
13588;SDS011;6865;52.552;13.434;2024-03-23T11:54:15;6.20;;;2.90;;
13588;SDS011;6865;52.552;13.434;2024-03-23T11:56:53;7.57;;;2.83;;
13588;SDS011;6865;52.552;13.434;2024-03-23T12:02:08;8.10;;;2.63;;
13588;SDS011;6865;52.552;13.434;2024-03-23T12:04:36;9.17;;;2.87;;
13588;SDS011;6865;52.552;13.434;2024-03-23T12:09:39;8.53;;;3.20;;
13588;SDS011;6865;52.552;13.434;2024-03-23T12:12:07;7.77;;;2.67;;
13588;SDS011;6865;52.552;13.434;2024-03-23T12:14:43;9.03;;;2.57;;
13588;SDS011;6865;52.552;13.434;2024-03-23T12:17:11;7.30;;;2.60;;
13588;SDS011;6865;52.552;13.434;2024-03-23T12:19:37;7.40;;;2.40;;
13588;SDS011;6865;52.552;13.434;2024-03-23T12:22:04;8.20;;;2.53;;
13588;SDS011;6865;52.552;13.434;2024-03-23T12:24:32;4.83;;;2.30;;
13588;SDS011;6865;52.552;13.434;2024-03-23T12:27:04;8.37;;;2.47;;
13588;SDS011;6865;52.552;13.434;2024-03-23T12:29:30;7.13;;;2.37;;
13588;SDS011;6865;52.552;13.434;2024-03-23T12:32:00;8.67;;;2.53;;
13588;SDS011;6865;52.552;13.434;2024-03-23T12:34:27;11.57;;;2.87;;
13588;SDS011;6865;52.552;13.434;2024-03-23T12:36:54;7.13;;;2.60;;
13588;SDS011;6865;52.552;13.434;2024-03-23T12:39:20;8.63;;;2.57;;
13588;SDS011;6865;52.552;13.434;2024-03-23T12:41:46;8.57;;;2.63;;
13588;SDS011;6865;52.552;13.434;2024-03-23T12:44:12;6.00;;;2.10;;
13588;SDS011;6865;52.552;13.434;2024-03-23T12:46:39;6.63;;;2.03;;
13588;SDS011;6865;52.552;13.434;2024-03-23T12:49:05;6.43;;;2.43;;
13588;SDS011;6865;52.552;13.434;2024-03-23T12:51:31;6.03;;;2.03;;
13588;SDS011;6865;52.552;13.434;2024-03-23T12:53:57;8.33;;;2.10;;
13588;SDS011;6865;52.552;13.434;2024-03-23T12:56:23;7.73;;;2.20;;
13588;SDS011;6865;52.552;13.434;2024-03-23T12:58:49;5.70;;;2.17;;
13588;SDS011;6865;52.552;13.434;2024-03-23T13:01:19;12.57;;;5.57;;
13588;SDS011;6865;52.552;13.434;2024-03-23T13:03:49;6.93;;;2.07;;
13588;SDS011;6865;52.552;13.434;2024-03-23T13:06:15;7.03;;;1.90;;
13588;SDS011;6865;52.552;13.434;2024-03-23T13:08:44;7.93;;;2.33;;
13588;SDS011;6865;52.552;13.434;2024-03-23T13:11:10;7.03;;;2.20;;
13588;SDS011;6865;52.552;13.434;2024-03-23T13:13:39;6.60;;;1.93;;
13588;SDS011;6865;52.552;13.434;2024-03-23T13:16:07;6.13;;;2.13;;
13588;SDS011;6865;52.552;13.434;2024-03-23T13:18:33;5.30;;;1.90;;
13588;SDS011;6865;52.552;13.434;2024-03-23T13:20:59;6.27;;;2.10;;
13588;SDS011;6865;52.552;13.434;2024-03-23T13:23:25;4.67;;;1.93;;
13588;SDS011;6865;52.552;13.434;2024-03-23T13:25:51;6.97;;;2.40;;
13588;SDS011;6865;52.552;13.434;2024-03-23T13:28:20;8.83;;;2.53;;
13588;SDS011;6865;52.552;13.434;2024-03-23T13:30:50;7.13;;;2.00;;
13588;SDS011;6865;52.552;13.434;2024-03-23T13:33:16;4.67;;;2.13;;
13588;SDS011;6865;52.552;13.434;2024-03-23T13:35:48;7.67;;;2.50;;
13588;SDS011;6865;52.552;13.434;2024-03-23T13:38:15;9.37;;;2.50;;
13588;SDS011;6865;52.552;13.434;2024-03-23T13:40:48;7.47;;;2.20;;
13588;SDS011;6865;52.552;13.434;2024-03-23T13:43:25;8.37;;;2.37;;
13588;SDS011;6865;52.552;13.434;2024-03-23T13:45:55;8.23;;;2.67;;
13588;SDS011;6865;52.552;13.434;2024-03-23T13:48:26;7.93;;;2.70;;
13588;SDS011;6865;52.552;13.434;2024-03-23T13:51:04;6.80;;;2.50;;
13588;SDS011;6865;52.552;13.434;2024-03-23T13:53:30;6.07;;;2.70;;
13588;SDS011;6865;52.552;13.434;2024-03-23T13:55:58;4.73;;;2.43;;
13588;SDS011;6865;52.552;13.434;2024-03-23T13:58:23;9.83;;;2.70;;
13588;SDS011;6865;52.552;13.434;2024-03-23T14:00:52;5.10;;;2.50;;
13588;SDS011;6865;52.552;13.434;2024-03-23T14:03:18;16.90;;;3.67;;
13588;SDS011;6865;52.552;13.434;2024-03-23T14:05:44;8.23;;;2.60;;
13588;SDS011;6865;52.552;13.434;2024-03-23T14:08:10;8.40;;;2.73;;
13588;SDS011;6865;52.552;13.434;2024-03-23T14:10:37;8.47;;;3.03;;
13588;SDS011;6865;52.552;13.434;2024-03-23T14:13:06;7.77;;;3.13;;
13588;SDS011;6865;52.552;13.434;2024-03-23T14:15:31;10.47;;;3.53;;
13588;SDS011;6865;52.552;13.434;2024-03-23T14:17:57;12.63;;;3.30;;
13588;SDS011;6865;52.552;13.434;2024-03-23T14:20:23;9.17;;;2.73;;
13588;SDS011;6865;52.552;13.434;2024-03-23T14:22:50;10.67;;;3.13;;
13588;SDS011;6865;52.552;13.434;2024-03-23T14:25:16;7.03;;;2.83;;
13588;SDS011;6865;52.552;13.434;2024-03-23T14:27:46;8.80;;;3.50;;
13588;SDS011;6865;52.552;13.434;2024-03-23T14:30:12;11.67;;;3.87;;
13588;SDS011;6865;52.552;13.434;2024-03-23T14:32:39;8.57;;;2.63;;
13588;SDS011;6865;52.552;13.434;2024-03-23T14:35:05;8.70;;;2.90;;
13588;SDS011;6865;52.552;13.434;2024-03-23T14:37:32;6.33;;;2.23;;
13588;SDS011;6865;52.552;13.434;2024-03-23T14:39:58;7.23;;;2.50;;
13588;SDS011;6865;52.552;13.434;2024-03-23T14:42:24;7.00;;;2.30;;
13588;SDS011;6865;52.552;13.434;2024-03-23T14:44:53;9.07;;;2.30;;
13588;SDS011;6865;52.552;13.434;2024-03-23T14:47:19;7.57;;;2.30;;
13588;SDS011;6865;52.552;13.434;2024-03-23T14:49:46;6.93;;;1.93;;
13588;SDS011;6865;52.552;13.434;2024-03-23T14:52:19;5.50;;;1.80;;
13588;SDS011;6865;52.552;13.434;2024-03-23T14:54:45;2.77;;;1.60;;
13588;SDS011;6865;52.552;13.434;2024-03-23T14:57:12;4.03;;;1.63;;
13588;SDS011;6865;52.552;13.434;2024-03-23T14:59:37;4.80;;;1.83;;
13588;SDS011;6865;52.552;13.434;2024-03-23T15:02:04;7.50;;;2.00;;
13588;SDS011;6865;52.552;13.434;2024-03-23T15:04:30;4.13;;;2.00;;
13588;SDS011;6865;52.552;13.434;2024-03-23T15:06:56;5.23;;;2.30;;
13588;SDS011;6865;52.552;13.434;2024-03-23T15:09:21;8.10;;;2.40;;
13588;SDS011;6865;52.552;13.434;2024-03-23T15:11:47;7.37;;;2.20;;
13588;SDS011;6865;52.552;13.434;2024-03-23T15:14:13;8.73;;;3.47;;
13588;SDS011;6865;52.552;13.434;2024-03-23T15:16:39;7.80;;;2.73;;
13588;SDS011;6865;52.552;13.434;2024-03-23T15:19:04;7.20;;;2.57;;
13588;SDS011;6865;52.552;13.434;2024-03-23T15:21:33;6.77;;;2.70;;
13588;SDS011;6865;52.552;13.434;2024-03-23T15:23:59;5.00;;;2.50;;
13588;SDS011;6865;52.552;13.434;2024-03-23T15:26:25;5.13;;;2.30;;
13588;SDS011;6865;52.552;13.434;2024-03-23T15:28:51;3.47;;;2.30;;
13588;SDS011;6865;52.552;13.434;2024-03-23T15:31:23;4.83;;;2.70;;
13588;SDS011;6865;52.552;13.434;2024-03-23T15:33:49;4.83;;;2.33;;
13588;SDS011;6865;52.552;13.434;2024-03-23T15:36:15;6.10;;;2.60;;
13588;SDS011;6865;52.552;13.434;2024-03-23T15:38:42;5.07;;;2.77;;
13588;SDS011;6865;52.552;13.434;2024-03-23T15:41:08;6.27;;;2.50;;